sensor_id;sensor_type;location;lat;lon;timestamp;pressure;altitude;pressure_sealevel;temperature;humidity
13486;BME280;6815;59.336;17.998;2023-01-29T00:01:03;52292.78;;;-145.37;95.63
13486;BME280;6815;59.336;17.998;2023-01-29T00:03:29;52282.78;;;-145.37;95.90
13486;BME280;6815;59.336;17.998;2023-01-29T00:05:55;52292.78;;;-145.37;96.11
13486;BME280;6815;59.336;17.998;2023-01-29T00:08:20;52264.81;;;-145.37;95.92
13486;BME280;6815;59.336;17.998;2023-01-29T00:10:47;52296.75;;;-145.37;95.60
13486;BME280;6815;59.336;17.998;2023-01-29T00:13:13;52272.81;;;-145.37;95.69
13486;BME280;6815;59.336;17.998;2023-01-29T00:15:39;52248.84;;;-145.37;95.70
13486;BME280;6815;59.336;17.998;2023-01-29T00:18:05;52274.81;;;-145.37;95.98
13486;BME280;6815;59.336;17.998;2023-01-29T00:20:30;52256.84;;;-145.37;95.85
13486;BME280;6815;59.336;17.998;2023-01-29T00:22:56;52274.81;;;-145.37;95.90
13486;BME280;6815;59.336;17.998;2023-01-29T00:25:21;52268.81;;;-145.37;95.94
13486;BME280;6815;59.336;17.998;2023-01-29T00:27:48;52276.81;;;-145.37;95.71
13486;BME280;6815;59.336;17.998;2023-01-29T00:30:14;52274.81;;;-145.37;95.59
13486;BME280;6815;59.336;17.998;2023-01-29T00:32:44;52258.84;;;-145.37;95.77
13486;BME280;6815;59.336;17.998;2023-01-29T00:35:10;52302.75;;;-145.37;96.03
13486;BME280;6815;59.336;17.998;2023-01-29T00:37:37;52282.78;;;-145.37;95.73
13486;BME280;6815;59.336;17.998;2023-01-29T00:40:03;52300.75;;;-145.37;95.93
13486;BME280;6815;59.336;17.998;2023-01-29T00:42:29;52302.75;;;-145.37;95.72
13486;BME280;6815;59.336;17.998;2023-01-29T00:45:13;52260.84;;;-145.37;95.91
13486;BME280;6815;59.336;17.998;2023-01-29T00:47:39;52308.75;;;-145.37;95.80
13486;BME280;6815;59.336;17.998;2023-01-29T00:50:08;52276.81;;;-145.37;96.34
13486;BME280;6815;59.336;17.998;2023-01-29T00:52:35;52280.78;;;-145.37;96.37
13486;BME280;6815;59.336;17.998;2023-01-29T00:55:04;52298.75;;;-145.37;96.48
13486;BME280;6815;59.336;17.998;2023-01-29T00:57:30;52250.84;;;-145.37;96.54
13486;BME280;6815;59.336;17.998;2023-01-29T00:59:56;52290.78;;;-145.37;96.28
13486;BME280;6815;59.336;17.998;2023-01-29T01:02:23;52278.78;;;-145.37;96.42
13486;BME280;6815;59.336;17.998;2023-01-29T01:05:08;52294.75;;;-145.37;96.25
13486;BME280;6815;59.336;17.998;2023-01-29T01:07:39;52256.84;;;-145.37;96.43
13486;BME280;6815;59.336;17.998;2023-01-29T01:10:06;52298.75;;;-145.37;96.17
13486;BME280;6815;59.336;17.998;2023-01-29T01:12:57;52266.81;;;-145.37;96.02
13486;BME280;6815;59.336;17.998;2023-01-29T01:15:25;52300.75;;;-145.37;96.49
13486;BME280;6815;59.336;17.998;2023-01-29T01:17:53;52312.72;;;-145.37;96.00
13486;BME280;6815;59.336;17.998;2023-01-29T01:20:19;52272.81;;;-145.37;96.20
13486;BME280;6815;59.336;17.998;2023-01-29T01:22:44;52262.81;;;-145.37;95.94
13486;BME280;6815;59.336;17.998;2023-01-29T01:25:10;52280.78;;;-145.37;95.92
13486;BME280;6815;59.336;17.998;2023-01-29T01:27:35;52258.84;;;-145.37;96.04
13486;BME280;6815;59.336;17.998;2023-01-29T01:30:09;52262.81;;;-145.37;95.80
13486;BME280;6815;59.336;17.998;2023-01-29T01:32:35;52278.78;;;-145.37;96.12
13486;BME280;6815;59.336;17.998;2023-01-29T01:35:01;52268.81;;;-145.37;96.25
13486;BME280;6815;59.336;17.998;2023-01-29T01:37:29;52260.84;;;-145.37;96.17
13486;BME280;6815;59.336;17.998;2023-01-29T01:39:55;52260.84;;;-145.37;96.00
13486;BME280;6815;59.336;17.998;2023-01-29T01:42:27;52300.75;;;-145.37;95.97
13486;BME280;6815;59.336;17.998;2023-01-29T01:45:03;52304.75;;;-145.37;96.16
13486;BME280;6815;59.336;17.998;2023-01-29T01:47:32;52264.81;;;-145.37;96.66
13486;BME280;6815;59.336;17.998;2023-01-29T01:50:05;52286.78;;;-145.37;96.43
13486;BME280;6815;59.336;17.998;2023-01-29T01:52:35;52288.78;;;-145.37;96.08
13486;BME280;6815;59.336;17.998;2023-01-29T01:55:02;52284.78;;;-145.37;95.71
13486;BME280;6815;59.336;17.998;2023-01-29T01:57:28;52282.78;;;-145.37;96.14
13486;BME280;6815;59.336;17.998;2023-01-29T02:00:07;52260.84;;;-145.37;96.37
13486;BME280;6815;59.336;17.998;2023-01-29T02:02:41;52266.81;;;-145.37;96.15
13486;BME280;6815;59.336;17.998;2023-01-29T02:05:26;52276.81;;;-145.37;96.34
13486;BME280;6815;59.336;17.998;2023-01-29T02:08:13;52302.75;;;-145.37;96.23
13486;BME280;6815;59.336;17.998;2023-01-29T02:10:57;52306.75;;;-145.37;96.02
13486;BME280;6815;59.336;17.998;2023-01-29T02:13:23;52274.81;;;-145.37;96.32
13486;BME280;6815;59.336;17.998;2023-01-29T02:15:48;52292.78;;;-145.37;96.37
13486;BME280;6815;59.336;17.998;2023-01-29T02:18:20;52266.81;;;-145.37;96.37
13486;BME280;6815;59.336;17.998;2023-01-29T02:27:04;52272.81;;;-145.37;96.68
13486;BME280;6815;59.336;17.998;2023-01-29T02:29:54;52260.84;;;-145.37;96.35
13486;BME280;6815;59.336;17.998;2023-01-29T02:32:40;52288.78;;;-145.37;96.34
13486;BME280;6815;59.336;17.998;2023-01-29T02:35:41;52264.81;;;-145.37;96.32
13486;BME280;6815;59.336;17.998;2023-01-29T02:38:34;52272.81;;;-145.37;96.41
13486;BME280;6815;59.336;17.998;2023-01-29T02:41:04;52264.81;;;-145.37;96.55
13486;BME280;6815;59.336;17.998;2023-01-29T02:43:46;52312.72;;;-145.37;96.21
13486;BME280;6815;59.336;17.998;2023-01-29T02:49:33;52276.81;;;-145.37;96.52
13486;BME280;6815;59.336;17.998;2023-01-29T02:52:22;52262.81;;;-145.37;96.79
13486;BME280;6815;59.336;17.998;2023-01-29T02:55:05;52296.75;;;-145.37;96.45
13486;BME280;6815;59.336;17.998;2023-01-29T02:57:36;52272.81;;;-145.37;96.36
13486;BME280;6815;59.336;17.998;2023-01-29T03:02:42;52298.75;;;-145.37;96.29
13486;BME280;6815;59.336;17.998;2023-01-29T03:05:16;52286.78;;;-145.37;95.84
13486;BME280;6815;59.336;17.998;2023-01-29T03:07:49;52268.81;;;-145.37;95.75
13486;BME280;6815;59.336;17.998;2023-01-29T03:10:27;52230.88;;;-145.37;96.36
13486;BME280;6815;59.336;17.998;2023-01-29T03:14:07;52278.78;;;-145.37;96.44
13486;BME280;6815;59.336;17.998;2023-01-29T03:16:34;52300.75;;;-145.37;96.11
13486;BME280;6815;59.336;17.998;2023-01-29T03:19:08;52246.84;;;-145.37;96.32
13486;BME280;6815;59.336;17.998;2023-01-29T03:21:53;52286.78;;;-145.37;96.43
13486;BME280;6815;59.336;17.998;2023-01-29T03:24:37;52276.81;;;-145.37;96.49
13486;BME280;6815;59.336;17.998;2023-01-29T03:27:26;52256.84;;;-145.37;96.22
13486;BME280;6815;59.336;17.998;2023-01-29T03:30:13;52258.84;;;-145.37;96.19
13486;BME280;6815;59.336;17.998;2023-01-29T03:33:04;52258.84;;;-145.37;97.35
13486;BME280;6815;59.336;17.998;2023-01-29T03:35:33;52306.75;;;-145.37;98.47
13486;BME280;6815;59.336;17.998;2023-01-29T03:38:09;52264.81;;;-145.37;97.88
13486;BME280;6815;59.336;17.998;2023-01-29T03:40:45;52296.75;;;-145.37;97.68
13486;BME280;6815;59.336;17.998;2023-01-29T03:43:24;52256.84;;;-145.37;97.27
13486;BME280;6815;59.336;17.998;2023-01-29T03:46:01;52276.81;;;-145.37;97.21
13486;BME280;6815;59.336;17.998;2023-01-29T03:48:53;52280.78;;;-145.37;97.21
13486;BME280;6815;59.336;17.998;2023-01-29T03:54:04;52266.81;;;-145.37;96.77
13486;BME280;6815;59.336;17.998;2023-01-29T04:01:54;52258.84;;;-145.37;97.33
13486;BME280;6815;59.336;17.998;2023-01-29T04:04:33;52280.78;;;-145.37;97.25
13486;BME280;6815;59.336;17.998;2023-01-29T04:07:05;52288.78;;;-145.37;97.31
13486;BME280;6815;59.336;17.998;2023-01-29T04:09:40;52252.84;;;-145.37;96.97
13486;BME280;6815;59.336;17.998;2023-01-29T04:12:10;52272.81;;;-145.37;97.20
13486;BME280;6815;59.336;17.998;2023-01-29T04:14:38;52262.81;;;-145.37;97.70
13486;BME280;6815;59.336;17.998;2023-01-29T04:17:14;52296.75;;;-145.37;97.29
13486;BME280;6815;59.336;17.998;2023-01-29T04:19:42;52264.81;;;-145.37;97.12
13486;BME280;6815;59.336;17.998;2023-01-29T04:22:16;52308.75;;;-145.37;97.55
13486;BME280;6815;59.336;17.998;2023-01-29T04:24:44;52276.81;;;-145.37;97.51
13486;BME280;6815;59.336;17.998;2023-01-29T04:38:40;52278.78;;;-145.37;97.23
13486;BME280;6815;59.336;17.998;2023-01-29T04:41:26;52286.78;;;-145.37;97.04
13486;BME280;6815;59.336;17.998;2023-01-29T04:44:04;52280.78;;;-145.37;97.67
13486;BME280;6815;59.336;17.998;2023-01-29T04:46:40;52256.84;;;-145.37;97.51
13486;BME280;6815;59.336;17.998;2023-01-29T04:54:52;52256.84;;;-145.37;97.37
13486;BME280;6815;59.336;17.998;2023-01-29T04:57:58;52288.78;;;-145.37;97.77
13486;BME280;6815;59.336;17.998;2023-01-29T05:00:32;52280.78;;;-145.37;97.76
13486;BME280;6815;59.336;17.998;2023-01-29T05:03:00;52282.78;;;-145.37;97.60
13486;BME280;6815;59.336;17.998;2023-01-29T05:05:26;52304.75;;;-145.37;98.12
13486;BME280;6815;59.336;17.998;2023-01-29T05:07:53;52296.75;;;-145.37;97.85
13486;BME280;6815;59.336;17.998;2023-01-29T05:10:21;52280.78;;;-145.37;97.72
13486;BME280;6815;59.336;17.998;2023-01-29T05:12:51;52294.75;;;-145.37;97.69
13486;BME280;6815;59.336;17.998;2023-01-29T05:15:24;52282.78;;;-145.37;97.77
13486;BME280;6815;59.336;17.998;2023-01-29T05:17:50;52278.78;;;-145.37;97.77
13486;BME280;6815;59.336;17.998;2023-01-29T05:20:18;52296.75;;;-145.37;97.97
13486;BME280;6815;59.336;17.998;2023-01-29T05:22:45;52290.78;;;-145.37;97.95
13486;BME280;6815;59.336;17.998;2023-01-29T05:25:22;52288.78;;;-145.37;97.41
13486;BME280;6815;59.336;17.998;2023-01-29T05:27:49;52294.75;;;-145.37;97.41
13486;BME280;6815;59.336;17.998;2023-01-29T05:30:35;52274.81;;;-145.37;97.30
13486;BME280;6815;59.336;17.998;2023-01-29T05:33:02;52268.81;;;-145.37;97.37
13486;BME280;6815;59.336;17.998;2023-01-29T05:35:28;52276.81;;;-145.37;97.26
13486;BME280;6815;59.336;17.998;2023-01-29T05:37:57;52300.75;;;-145.37;97.27
13486;BME280;6815;59.336;17.998;2023-01-29T05:40:24;52260.84;;;-145.37;97.29
13486;BME280;6815;59.336;17.998;2023-01-29T05:42:51;52296.75;;;-145.37;97.16
13486;BME280;6815;59.336;17.998;2023-01-29T05:45:17;52280.78;;;-145.37;97.05
13486;BME280;6815;59.336;17.998;2023-01-29T05:47:43;52274.81;;;-145.37;97.22
13486;BME280;6815;59.336;17.998;2023-01-29T05:50:09;52274.81;;;-145.37;97.11
13486;BME280;6815;59.336;17.998;2023-01-29T05:52:36;52286.78;;;-145.37;97.32
13486;BME280;6815;59.336;17.998;2023-01-29T05:55:02;52290.78;;;-145.37;97.12
13486;BME280;6815;59.336;17.998;2023-01-29T05:57:28;52242.88;;;-145.37;97.55
13486;BME280;6815;59.336;17.998;2023-01-29T05:59:53;52290.78;;;-145.37;97.22
13486;BME280;6815;59.336;17.998;2023-01-29T06:02:19;52260.84;;;-145.37;97.52
13486;BME280;6815;59.336;17.998;2023-01-29T06:04:45;52262.81;;;-145.37;97.62
13486;BME280;6815;59.336;17.998;2023-01-29T06:07:10;52298.75;;;-145.37;97.87
13486;BME280;6815;59.336;17.998;2023-01-29T06:09:36;52228.88;;;-145.37;97.71
13486;BME280;6815;59.336;17.998;2023-01-29T06:12:01;52258.84;;;-145.37;97.50
13486;BME280;6815;59.336;17.998;2023-01-29T06:14:27;52268.81;;;-145.37;97.60
13486;BME280;6815;59.336;17.998;2023-01-29T06:16:53;52280.78;;;-145.37;97.18
13486;BME280;6815;59.336;17.998;2023-01-29T06:19:18;52252.84;;;-145.37;97.53
13486;BME280;6815;59.336;17.998;2023-01-29T06:21:44;52250.84;;;-145.37;97.77
13486;BME280;6815;59.336;17.998;2023-01-29T06:24:10;52262.81;;;-145.37;97.83
13486;BME280;6815;59.336;17.998;2023-01-29T06:26:35;52294.75;;;-145.37;97.91
13486;BME280;6815;59.336;17.998;2023-01-29T06:29:01;52294.75;;;-145.37;97.80
13486;BME280;6815;59.336;17.998;2023-01-29T06:31:27;52282.78;;;-145.37;98.03
13486;BME280;6815;59.336;17.998;2023-01-29T06:33:52;52276.81;;;-145.37;98.23
13486;BME280;6815;59.336;17.998;2023-01-29T06:36:17;52292.78;;;-145.37;97.68
13486;BME280;6815;59.336;17.998;2023-01-29T06:38:43;52266.81;;;-145.37;97.58
13486;BME280;6815;59.336;17.998;2023-01-29T06:41:11;52292.78;;;-145.37;97.28
13486;BME280;6815;59.336;17.998;2023-01-29T06:43:37;52280.78;;;-145.37;97.26
13486;BME280;6815;59.336;17.998;2023-01-29T06:46:06;52300.75;;;-145.37;97.44
13486;BME280;6815;59.336;17.998;2023-01-29T06:48:32;52256.84;;;-145.37;97.45
13486;BME280;6815;59.336;17.998;2023-01-29T06:51:03;52270.81;;;-145.37;97.29
13486;BME280;6815;59.336;17.998;2023-01-29T06:53:29;52308.75;;;-145.37;96.94
13486;BME280;6815;59.336;17.998;2023-01-29T06:55:55;52310.75;;;-145.37;96.89
13486;BME280;6815;59.336;17.998;2023-01-29T06:58:21;52300.75;;;-145.37;96.67
13486;BME280;6815;59.336;17.998;2023-01-29T07:00:47;52294.75;;;-145.37;96.84
13486;BME280;6815;59.336;17.998;2023-01-29T07:03:13;52278.78;;;-145.37;96.59
13486;BME280;6815;59.336;17.998;2023-01-29T07:05:39;52276.81;;;-145.37;96.76
13486;BME280;6815;59.336;17.998;2023-01-29T07:08:05;52286.78;;;-145.37;96.91
13486;BME280;6815;59.336;17.998;2023-01-29T07:10:30;52236.88;;;-145.37;97.12
13486;BME280;6815;59.336;17.998;2023-01-29T07:12:57;52248.84;;;-145.37;97.61
13486;BME280;6815;59.336;17.998;2023-01-29T07:15:23;52284.78;;;-145.37;97.19
13486;BME280;6815;59.336;17.998;2023-01-29T07:17:58;52270.81;;;-145.37;97.25
13486;BME280;6815;59.336;17.998;2023-01-29T07:20:28;52256.84;;;-145.37;97.87
13486;BME280;6815;59.336;17.998;2023-01-29T07:22:55;52258.84;;;-145.37;97.26
13486;BME280;6815;59.336;17.998;2023-01-29T07:25:20;52272.81;;;-145.37;97.67
13486;BME280;6815;59.336;17.998;2023-01-29T07:27:46;52234.88;;;-145.37;97.52
13486;BME280;6815;59.336;17.998;2023-01-29T07:30:13;52292.78;;;-145.37;97.77
13486;BME280;6815;59.336;17.998;2023-01-29T07:32:38;52250.84;;;-145.37;97.88
13486;BME280;6815;59.336;17.998;2023-01-29T07:35:04;52284.78;;;-145.37;97.99
13486;BME280;6815;59.336;17.998;2023-01-29T07:37:31;52264.81;;;-145.37;97.58
13486;BME280;6815;59.336;17.998;2023-01-29T07:39:57;52276.81;;;-145.37;97.47
13486;BME280;6815;59.336;17.998;2023-01-29T07:42:24;52250.84;;;-145.37;97.75
13486;BME280;6815;59.336;17.998;2023-01-29T07:44:49;52260.84;;;-145.37;97.60
13486;BME280;6815;59.336;17.998;2023-01-29T07:47:15;52286.78;;;-145.37;97.50
13486;BME280;6815;59.336;17.998;2023-01-29T07:49:40;52302.75;;;-145.37;97.91
13486;BME280;6815;59.336;17.998;2023-01-29T07:52:06;52276.81;;;-145.37;97.68
13486;BME280;6815;59.336;17.998;2023-01-29T07:54:32;52306.75;;;-145.37;97.48
13486;BME280;6815;59.336;17.998;2023-01-29T07:56:58;52288.78;;;-145.37;97.21
13486;BME280;6815;59.336;17.998;2023-01-29T07:59:24;52290.78;;;-145.37;97.77
13486;BME280;6815;59.336;17.998;2023-01-29T08:01:49;52272.81;;;-145.37;97.77
13486;BME280;6815;59.336;17.998;2023-01-29T08:04:15;52296.75;;;-145.37;97.11
13486;BME280;6815;59.336;17.998;2023-01-29T08:06:40;52270.81;;;-145.37;97.04
13486;BME280;6815;59.336;17.998;2023-01-29T08:09:06;52248.84;;;-145.37;97.35
13486;BME280;6815;59.336;17.998;2023-01-29T08:11:32;52308.75;;;-145.37;97.48
13486;BME280;6815;59.336;17.998;2023-01-29T08:13:58;52294.75;;;-145.37;97.14
13486;BME280;6815;59.336;17.998;2023-01-29T08:16:23;52296.75;;;-145.37;97.10
13486;BME280;6815;59.336;17.998;2023-01-29T08:18:49;52288.78;;;-145.37;96.79
13486;BME280;6815;59.336;17.998;2023-01-29T08:21:14;52280.78;;;-145.37;96.78
13486;BME280;6815;59.336;17.998;2023-01-29T08:23:40;52290.78;;;-145.37;97.17
13486;BME280;6815;59.336;17.998;2023-01-29T08:26:06;52274.81;;;-145.37;97.25
13486;BME280;6815;59.336;17.998;2023-01-29T08:28:32;52234.88;;;-145.37;97.03
13486;BME280;6815;59.336;17.998;2023-01-29T08:30:58;52246.84;;;-145.37;96.85
13486;BME280;6815;59.336;17.998;2023-01-29T08:33:24;52252.84;;;-145.37;96.97
13486;BME280;6815;59.336;17.998;2023-01-29T08:35:53;52300.75;;;-145.37;96.85
13486;BME280;6815;59.336;17.998;2023-01-29T08:38:19;52292.78;;;-145.37;96.82
13486;BME280;6815;59.336;17.998;2023-01-29T08:40:45;52264.81;;;-145.37;96.86
13486;BME280;6815;59.336;17.998;2023-01-29T08:43:12;52244.84;;;-145.37;96.66
13486;BME280;6815;59.336;17.998;2023-01-29T08:45:42;52294.75;;;-145.37;96.14
13486;BME280;6815;59.336;17.998;2023-01-29T08:48:08;52280.78;;;-145.37;96.06
13486;BME280;6815;59.336;17.998;2023-01-29T08:50:34;52270.81;;;-145.37;96.29
13486;BME280;6815;59.336;17.998;2023-01-29T08:53:02;52296.75;;;-145.37;96.26
13486;BME280;6815;59.336;17.998;2023-01-29T08:55:28;52286.78;;;-145.37;96.26
13486;BME280;6815;59.336;17.998;2023-01-29T08:57:54;52286.78;;;-145.37;96.53
13486;BME280;6815;59.336;17.998;2023-01-29T09:00:21;52312.72;;;-145.37;96.51
13486;BME280;6815;59.336;17.998;2023-01-29T09:02:47;52300.75;;;-145.37;96.29
13486;BME280;6815;59.336;17.998;2023-01-29T09:05:12;52256.84;;;-145.37;96.41
13486;BME280;6815;59.336;17.998;2023-01-29T09:07:37;52276.81;;;-145.37;96.71
13486;BME280;6815;59.336;17.998;2023-01-29T09:10:03;52312.72;;;-145.37;96.24
13486;BME280;6815;59.336;17.998;2023-01-29T09:12:29;52288.78;;;-145.37;96.54
13486;BME280;6815;59.336;17.998;2023-01-29T09:14:54;52262.81;;;-145.37;96.50
13486;BME280;6815;59.336;17.998;2023-01-29T09:17:19;52288.78;;;-145.37;96.28
13486;BME280;6815;59.336;17.998;2023-01-29T09:19:45;52272.81;;;-145.37;96.01
13486;BME280;6815;59.336;17.998;2023-01-29T09:22:10;52302.75;;;-145.37;96.20
13486;BME280;6815;59.336;17.998;2023-01-29T09:24:36;52254.84;;;-145.37;96.33
13486;BME280;6815;59.336;17.998;2023-01-29T09:27:01;52266.81;;;-145.37;96.29
13486;BME280;6815;59.336;17.998;2023-01-29T09:29:26;52266.81;;;-145.37;96.10
13486;BME280;6815;59.336;17.998;2023-01-29T09:31:52;52268.81;;;-145.37;95.71
13486;BME280;6815;59.336;17.998;2023-01-29T09:34:17;52310.75;;;-145.37;95.67
13486;BME280;6815;59.336;17.998;2023-01-29T09:36:43;52252.84;;;-145.37;95.73
13486;BME280;6815;59.336;17.998;2023-01-29T09:39:08;52300.75;;;-145.37;95.80
13486;BME280;6815;59.336;17.998;2023-01-29T09:41:42;52260.84;;;-145.37;96.03
13486;BME280;6815;59.336;17.998;2023-01-29T09:44:19;52252.84;;;-145.37;95.64
13486;BME280;6815;59.336;17.998;2023-01-29T09:46:48;52294.75;;;-145.37;95.68
13486;BME280;6815;59.336;17.998;2023-01-29T09:49:48;52244.84;;;-145.37;95.34
13486;BME280;6815;59.336;17.998;2023-01-29T09:52:21;52286.78;;;-145.37;95.15
13486;BME280;6815;59.336;17.998;2023-01-29T09:55:01;52308.75;;;-145.37;95.27
13486;BME280;6815;59.336;17.998;2023-01-29T09:57:57;52252.84;;;-145.37;95.48
13486;BME280;6815;59.336;17.998;2023-01-29T10:00:47;52256.84;;;-145.37;95.89
13486;BME280;6815;59.336;17.998;2023-01-29T10:06:20;52232.88;;;-145.37;95.72
13486;BME280;6815;59.336;17.998;2023-01-29T10:11:48;52320.72;;;-145.37;95.41
13486;BME280;6815;59.336;17.998;2023-01-29T10:25:54;52274.81;;;-145.37;95.30
13486;BME280;6815;59.336;17.998;2023-01-29T10:28:27;52286.78;;;-145.37;95.17
13486;BME280;6815;59.336;17.998;2023-01-29T10:31:04;52306.75;;;-145.37;95.24
13486;BME280;6815;59.336;17.998;2023-01-29T10:33:40;52292.78;;;-145.37;94.99
13486;BME280;6815;59.336;17.998;2023-01-29T10:36:11;52258.84;;;-145.37;94.78
13486;BME280;6815;59.336;17.998;2023-01-29T10:38:43;52270.81;;;-145.37;94.91
13486;BME280;6815;59.336;17.998;2023-01-29T10:44:04;52292.78;;;-145.37;94.79
13486;BME280;6815;59.336;17.998;2023-01-29T10:47:05;52292.78;;;-145.37;94.76
13486;BME280;6815;59.336;17.998;2023-01-29T10:52:43;52270.81;;;-145.37;94.92
13486;BME280;6815;59.336;17.998;2023-01-29T11:00:41;52244.84;;;-145.37;94.52
13486;BME280;6815;59.336;17.998;2023-01-29T11:08:45;52228.88;;;-145.37;94.79
13486;BME280;6815;59.336;17.998;2023-01-29T11:11:18;52248.84;;;-145.37;94.90
13486;BME280;6815;59.336;17.998;2023-01-29T11:13:57;52272.81;;;-145.37;94.73
13486;BME280;6815;59.336;17.998;2023-01-29T11:16:28;52276.81;;;-145.37;94.43
13486;BME280;6815;59.336;17.998;2023-01-29T11:18:59;52262.81;;;-145.37;94.62
13486;BME280;6815;59.336;17.998;2023-01-29T11:21:27;52244.84;;;-145.37;94.51
13486;BME280;6815;59.336;17.998;2023-01-29T11:24:12;52274.81;;;-145.37;94.55
13486;BME280;6815;59.336;17.998;2023-01-29T11:26:42;52286.78;;;-145.37;94.25
13486;BME280;6815;59.336;17.998;2023-01-29T11:32:00;52296.75;;;-145.37;94.44
13486;BME280;6815;59.336;17.998;2023-01-29T11:34:27;52282.78;;;-145.37;94.41
13486;BME280;6815;59.336;17.998;2023-01-29T11:36:59;52280.78;;;-145.37;94.16
13486;BME280;6815;59.336;17.998;2023-01-29T11:39:26;52290.78;;;-145.37;94.15
13486;BME280;6815;59.336;17.998;2023-01-29T11:47:25;52298.75;;;-145.37;93.85
13486;BME280;6815;59.336;17.998;2023-01-29T11:49:57;52282.78;;;-145.37;93.96
13486;BME280;6815;59.336;17.998;2023-01-29T11:52:33;52284.78;;;-145.37;93.73
13486;BME280;6815;59.336;17.998;2023-01-29T11:55:23;52248.84;;;-145.37;93.59
13486;BME280;6815;59.336;17.998;2023-01-29T11:58:11;52260.84;;;-145.37;93.58
13486;BME280;6815;59.336;17.998;2023-01-29T12:00:40;52298.75;;;-145.37;93.70
13486;BME280;6815;59.336;17.998;2023-01-29T12:03:14;52284.78;;;-145.37;93.28
13486;BME280;6815;59.336;17.998;2023-01-29T12:05:55;52272.81;;;-145.37;92.98
13486;BME280;6815;59.336;17.998;2023-01-29T12:08:22;52230.88;;;-145.37;93.05
13486;BME280;6815;59.336;17.998;2023-01-29T12:10:49;52286.78;;;-145.37;92.88
13486;BME280;6815;59.336;17.998;2023-01-29T12:13:18;52296.75;;;-145.37;93.02
13486;BME280;6815;59.336;17.998;2023-01-29T12:15:47;52302.75;;;-145.37;92.80
13486;BME280;6815;59.336;17.998;2023-01-29T12:18:30;52326.72;;;-145.37;92.48
13486;BME280;6815;59.336;17.998;2023-01-29T12:21:11;52318.72;;;-145.37;92.60
13486;BME280;6815;59.336;17.998;2023-01-29T12:24:16;52290.78;;;-145.37;92.19
13486;BME280;6815;59.336;17.998;2023-01-29T12:26:56;52290.78;;;-145.37;92.29
13486;BME280;6815;59.336;17.998;2023-01-29T12:35:22;52300.75;;;-145.37;92.50
13486;BME280;6815;59.336;17.998;2023-01-29T12:38:13;52272.81;;;-145.37;92.51
13486;BME280;6815;59.336;17.998;2023-01-29T12:40:57;52302.75;;;-145.37;92.27
13486;BME280;6815;59.336;17.998;2023-01-29T12:43:34;52272.81;;;-145.37;92.42
13486;BME280;6815;59.336;17.998;2023-01-29T12:46:05;52308.75;;;-145.37;92.53
13486;BME280;6815;59.336;17.998;2023-01-29T12:48:37;52320.72;;;-145.37;92.19
13486;BME280;6815;59.336;17.998;2023-01-29T12:51:10;52282.78;;;-145.37;92.10
13486;BME280;6815;59.336;17.998;2023-01-29T12:53:51;52286.78;;;-145.37;92.20
13486;BME280;6815;59.336;17.998;2023-01-29T12:56:43;52282.78;;;-145.37;92.05
13486;BME280;6815;59.336;17.998;2023-01-29T13:01:51;52284.78;;;-145.37;92.23
13486;BME280;6815;59.336;17.998;2023-01-29T13:04:39;52296.75;;;-145.37;92.48
13486;BME280;6815;59.336;17.998;2023-01-29T13:07:17;52282.78;;;-145.37;92.36
13486;BME280;6815;59.336;17.998;2023-01-29T13:09:48;52256.84;;;-145.37;92.50
13486;BME280;6815;59.336;17.998;2023-01-29T13:12:17;52260.84;;;-145.37;92.88
13486;BME280;6815;59.336;17.998;2023-01-29T13:14:50;52262.81;;;-145.37;92.87
13486;BME280;6815;59.336;17.998;2023-01-29T13:20:15;52258.84;;;-145.37;92.56
13486;BME280;6815;59.336;17.998;2023-01-29T13:22:43;52310.75;;;-145.37;92.79
13486;BME280;6815;59.336;17.998;2023-01-29T13:25:15;52282.78;;;-145.37;92.76
13486;BME280;6815;59.336;17.998;2023-01-29T13:27:42;52292.78;;;-145.37;92.52
13486;BME280;6815;59.336;17.998;2023-01-29T13:30:23;52318.72;;;-145.37;92.77
13486;BME280;6815;59.336;17.998;2023-01-29T13:32:50;52284.78;;;-145.37;92.90
13486;BME280;6815;59.336;17.998;2023-01-29T13:35:20;52264.81;;;-145.37;93.02
13486;BME280;6815;59.336;17.998;2023-01-29T13:37:49;52250.84;;;-145.37;92.77
13486;BME280;6815;59.336;17.998;2023-01-29T13:42:47;52304.75;;;-145.37;92.71
13486;BME280;6815;59.336;17.998;2023-01-29T13:45:20;52292.78;;;-145.37;92.94
13486;BME280;6815;59.336;17.998;2023-01-29T13:47:47;52294.75;;;-145.37;92.80
13486;BME280;6815;59.336;17.998;2023-01-29T13:50:23;52304.75;;;-145.37;92.73
13486;BME280;6815;59.336;17.998;2023-01-29T13:52:56;52296.75;;;-145.37;92.77
13486;BME280;6815;59.336;17.998;2023-01-29T13:55:32;52290.78;;;-145.37;93.03
13486;BME280;6815;59.336;17.998;2023-01-29T13:58:03;52284.78;;;-145.37;92.88
13486;BME280;6815;59.336;17.998;2023-01-29T14:10:38;52302.75;;;-145.37;92.50
13486;BME280;6815;59.336;17.998;2023-01-29T14:15:33;52284.78;;;-145.37;92.44
13486;BME280;6815;59.336;17.998;2023-01-29T14:18:03;52292.78;;;-145.37;92.46
13486;BME280;6815;59.336;17.998;2023-01-29T14:20:47;52306.75;;;-145.37;92.20
13486;BME280;6815;59.336;17.998;2023-01-29T14:23:34;52260.84;;;-145.37;92.49
13486;BME280;6815;59.336;17.998;2023-01-29T14:26:04;52268.81;;;-145.37;92.30
13486;BME280;6815;59.336;17.998;2023-01-29T14:28:42;52292.78;;;-145.37;92.59
13486;BME280;6815;59.336;17.998;2023-01-29T14:31:42;52294.75;;;-145.37;92.23
13486;BME280;6815;59.336;17.998;2023-01-29T14:34:35;52248.84;;;-145.37;92.39
13486;BME280;6815;59.336;17.998;2023-01-29T14:40:07;52276.81;;;-145.37;92.30
13486;BME280;6815;59.336;17.998;2023-01-29T14:58:27;52318.72;;;-145.37;92.26
13486;BME280;6815;59.336;17.998;2023-01-29T15:00:58;52282.78;;;-145.37;92.26
13486;BME280;6815;59.336;17.998;2023-01-29T15:03:46;52286.78;;;-145.37;92.20
13486;BME280;6815;59.336;17.998;2023-01-29T15:06:29;52292.78;;;-145.37;92.06
13486;BME280;6815;59.336;17.998;2023-01-29T15:09:29;52310.75;;;-145.37;92.31